Decoded Metar for LFRQ (QUIMPER in FRANCE) (IATA:UIP) | Meteo·Mobile Aviation Weather
aviador You're here:

LFRQ Decoded Metar

QUIMPER in FRANCE
Report Time2019-07-22 15:30:00
UTC Time2019-07-22 16:00:18
Flight Rules vfr VFR
Wind230° at 05 kt
W.Decomp.*RWY 28: 3.4 kt HW 3.7 kt LCW
Visibility9999 m
Phenomena:N/A
Clouds:Few 030 Hf
Expected CloudBase > 3,200 ft AGL from Temp-Dew spread
CeilingNone
Temp26°C (ISA +12)
Dew Point18°C (61% RH)
QNH1022 hPa
Density Alt1,621 ft
Elevation308 ft
Report Wrong Elevation
Raw Report
LFRQ 221530Z AUTO 23005KT 190V330 9999 FEW030 26/18 Q1022
NOSIG=

Extra information for LFRQ:More info

Metar Taf Metar & Taf Last 4 Metars F.Rules Stats Wind Profile Meteogram Temp Stats Airport Information Weather charts Add Link Nearby VenuesMetar ALERT Operation Metar Decoded Social comments